createdAt,value
2017-12-28T00:00:28.904Z,982.31
2017-12-28T00:01:09.489Z,982.31
2017-12-28T00:01:50.061Z,982.33
2017-12-28T00:02:30.619Z,982.29
2017-12-28T00:03:11.185Z,982.29
2017-12-28T00:03:51.789Z,982.32
2017-12-28T00:04:32.374Z,982.27
2017-12-28T00:05:12.938Z,982.25
2017-12-28T00:05:53.521Z,982.23
2017-12-28T00:06:34.083Z,982.24
2017-12-28T00:07:14.662Z,982.25
2017-12-28T00:07:55.223Z,982.22
2017-12-28T00:08:35.794Z,982.25
2017-12-28T00:09:16.371Z,982.23
2017-12-28T00:09:57.001Z,982.22
2017-12-28T00:10:37.588Z,982.18
2017-12-28T00:11:18.189Z,982.21
2017-12-28T00:11:58.756Z,982.2
2017-12-28T00:12:39.336Z,982.17
2017-12-28T00:13:19.919Z,982.18
2017-12-28T00:14:00.495Z,982.15
2017-12-28T00:14:41.060Z,982.15
2017-12-28T00:15:21.640Z,982.17
2017-12-28T00:16:02.210Z,982.11
2017-12-28T00:16:42.806Z,982.18
2017-12-28T00:17:23.421Z,982.19
2017-12-28T00:18:03.988Z,982.16
2017-12-28T00:18:44.556Z,982.14
2017-12-28T00:19:25.114Z,982.1
2017-12-28T00:20:05.681Z,982.09
2017-12-28T00:20:46.248Z,982.13
2017-12-28T00:21:26.804Z,982.08
2017-12-28T00:22:07.354Z,982.07
2017-12-28T00:22:47.912Z,982.07
2017-12-28T00:23:28.484Z,982.08
2017-12-28T00:24:09.060Z,982.06
2017-12-28T00:24:49.637Z,982.08
2017-12-28T00:25:30.214Z,982.08
2017-12-28T00:26:10.798Z,982.07
2017-12-28T00:26:51.380Z,982.06
2017-12-28T00:27:31.956Z,982.04
2017-12-28T00:28:12.522Z,982.06
2017-12-28T00:28:53.102Z,982.06
2017-12-28T00:29:33.670Z,982.04
2017-12-28T00:30:14.241Z,982.09
2017-12-28T00:30:54.815Z,982.08
2017-12-28T00:31:35.415Z,982.1
2017-12-28T00:32:15.988Z,982.11
2017-12-28T00:32:56.566Z,982.1
2017-12-28T00:33:37.138Z,982.1
2017-12-28T00:34:17.707Z,982.08
2017-12-28T00:34:58.321Z,982.1
2017-12-28T00:35:38.885Z,982.04
2017-12-28T00:36:19.445Z,982.02
2017-12-28T00:37:00.022Z,981.99
2017-12-28T00:37:40.574Z,982.02
2017-12-28T00:38:21.134Z,982
2017-12-28T00:39:01.702Z,981.98
2017-12-28T00:39:42.260Z,981.99
2017-12-28T00:40:22.874Z,981.96
2017-12-28T00:41:03.484Z,981.96
2017-12-28T00:41:44.070Z,981.94
2017-12-28T00:42:24.625Z,981.94
2017-12-28T00:43:05.199Z,981.93
2017-12-28T00:43:45.756Z,981.92
2017-12-28T00:44:26.330Z,981.96
2017-12-28T00:45:06.893Z,981.91
2017-12-28T00:45:47.479Z,981.94
2017-12-28T00:46:28.048Z,981.98
2017-12-28T00:47:08.630Z,981.98
2017-12-28T00:47:49.198Z,981.98
2017-12-28T00:48:29.770Z,982.03
2017-12-28T00:49:10.343Z,982.01
2017-12-28T00:49:50.910Z,982.04
2017-12-28T00:50:31.483Z,982.03
2017-12-28T00:51:12.045Z,982.07
2017-12-28T00:51:52.607Z,982.11
2017-12-28T00:52:33.185Z,982.11
2017-12-28T00:53:13.737Z,982.19
2017-12-28T00:53:54.314Z,982.19
2017-12-28T00:54:34.880Z,982.2
2017-12-28T00:55:15.461Z,982.26
2017-12-28T00:55:56.041Z,982.24
2017-12-28T00:56:36.593Z,982.22
2017-12-28T00:57:17.168Z,982.27
2017-12-28T00:57:57.763Z,982.25
2017-12-28T00:58:38.319Z,982.28
2017-12-28T00:59:18.899Z,982.26
2017-12-28T00:59:59.482Z,982.25
2017-12-28T01:00:40.054Z,982.27
2017-12-28T01:01:20.614Z,982.22
2017-12-28T01:02:01.167Z,982.26
2017-12-28T01:02:41.730Z,982.21
2017-12-28T01:03:22.294Z,982.19
2017-12-28T01:04:02.856Z,982.19
2017-12-28T01:04:43.423Z,982.18
2017-12-28T01:05:23.978Z,982.24
2017-12-28T01:06:04.564Z,982.24
2017-12-28T01:06:45.123Z,982.26
2017-12-28T01:07:25.672Z,982.28
2017-12-28T01:08:06.251Z,982.28
2017-12-28T01:08:46.819Z,982.37
2017-12-28T01:09:27.382Z,982.35
2017-12-28T01:10:07.947Z,982.44
2017-12-28T01:10:48.521Z,982.43
2017-12-28T01:11:29.114Z,982.44
2017-12-28T01:12:09.676Z,982.45
2017-12-28T01:12:50.287Z,982.43
2017-12-28T01:13:30.853Z,982.43
2017-12-28T01:14:11.419Z,982.45
2017-12-28T01:14:51.977Z,982.45
2017-12-28T01:15:32.545Z,982.47
2017-12-28T01:16:13.122Z,982.49
2017-12-28T01:16:53.690Z,982.5
2017-12-28T01:17:34.292Z,982.46
2017-12-28T01:18:14.874Z,982.52
2017-12-28T01:18:55.441Z,982.49
2017-12-28T01:19:35.999Z,982.51
2017-12-28T01:20:16.559Z,982.53
2017-12-28T01:20:57.130Z,982.5
2017-12-28T01:21:37.695Z,982.46
2017-12-28T01:22:18.252Z,982.51
2017-12-28T01:22:58.813Z,982.48
2017-12-28T01:23:39.393Z,982.46
2017-12-28T01:24:19.947Z,982.5
2017-12-28T01:25:00.509Z,982.54
2017-12-28T01:25:41.075Z,982.57
2017-12-28T01:26:21.651Z,982.56
2017-12-28T01:27:02.236Z,982.59
2017-12-28T01:27:42.794Z,982.55
2017-12-28T01:28:23.352Z,982.56
2017-12-28T01:29:03.921Z,982.56
2017-12-28T01:29:44.497Z,982.58
2017-12-28T01:30:25.063Z,982.56
2017-12-28T01:31:05.620Z,982.52
2017-12-28T01:31:46.172Z,982.54
2017-12-28T01:32:26.727Z,982.56
2017-12-28T01:33:07.335Z,982.54
2017-12-28T01:33:47.889Z,982.55
2017-12-28T01:34:28.453Z,982.52
2017-12-28T01:35:09.020Z,982.48
2017-12-28T01:35:49.597Z,982.49
2017-12-28T01:36:30.155Z,982.5
2017-12-28T01:37:10.718Z,982.5
2017-12-28T01:37:51.276Z,982.5
2017-12-28T01:38:31.841Z,982.51
2017-12-28T01:39:12.394Z,982.51
2017-12-28T01:39:52.970Z,982.49
2017-12-28T01:40:33.541Z,982.51
2017-12-28T01:41:14.100Z,982.5
2017-12-28T01:41:54.650Z,982.47
2017-12-28T01:42:35.216Z,982.47
2017-12-28T01:43:15.774Z,982.51
2017-12-28T01:43:56.395Z,982.5
2017-12-28T01:44:36.911Z,982.52
2017-12-28T01:45:17.482Z,982.53
2017-12-28T01:45:58.039Z,982.53
2017-12-28T01:46:38.609Z,982.57
2017-12-28T01:47:19.180Z,982.54
2017-12-28T01:47:59.725Z,982.55
2017-12-28T01:48:40.278Z,982.58
2017-12-28T01:49:20.838Z,982.56
2017-12-28T01:50:01.400Z,982.53
2017-12-28T01:50:41.959Z,982.54
2017-12-28T01:51:22.515Z,982.52
2017-12-28T01:52:03.081Z,982.54
2017-12-28T01:52:43.647Z,982.54
2017-12-28T01:53:24.219Z,982.58
2017-12-28T01:54:04.785Z,982.53
2017-12-28T01:54:45.365Z,982.55
2017-12-28T01:55:25.920Z,982.57
2017-12-28T01:56:06.508Z,982.57
2017-12-28T01:56:47.080Z,982.53
2017-12-28T01:57:27.693Z,982.56
2017-12-28T01:58:08.238Z,982.53
2017-12-28T01:58:48.805Z,982.55
2017-12-28T01:59:29.412Z,982.55
2017-12-28T02:00:09.981Z,982.57
2017-12-28T02:00:50.559Z,982.54
2017-12-28T02:01:31.141Z,982.52
2017-12-28T02:02:11.701Z,982.55
2017-12-28T02:02:52.302Z,982.55
2017-12-28T02:03:32.879Z,982.54
2017-12-28T02:04:13.475Z,982.51
2017-12-28T02:04:54.051Z,982.49
2017-12-28T02:05:34.625Z,982.51
2017-12-28T02:06:15.181Z,982.49
2017-12-28T02:06:55.741Z,982.52
2017-12-28T02:07:36.293Z,982.5
2017-12-28T02:08:16.877Z,982.54
2017-12-28T02:08:57.439Z,982.52
2017-12-28T02:09:38.009Z,982.55
2017-12-28T02:10:18.580Z,982.52
2017-12-28T02:10:59.142Z,982.52
2017-12-28T02:11:39.704Z,982.5
2017-12-28T02:12:20.283Z,982.52
2017-12-28T02:13:00.842Z,982.51
2017-12-28T02:13:41.397Z,982.51
2017-12-28T02:14:21.955Z,982.48
2017-12-28T02:15:02.533Z,982.53
2017-12-28T02:15:43.096Z,982.51
2017-12-28T02:16:23.674Z,982.5
2017-12-28T02:17:04.290Z,982.53
2017-12-28T02:17:44.851Z,982.53
2017-12-28T02:18:25.410Z,982.54
2017-12-28T02:19:05.975Z,982.56
2017-12-28T02:19:46.553Z,982.56
2017-12-28T02:20:27.103Z,982.54
2017-12-28T02:21:07.703Z,982.56
2017-12-28T02:21:48.276Z,982.56
2017-12-28T02:22:28.836Z,982.55
2017-12-28T02:23:09.410Z,982.53
2017-12-28T02:23:49.986Z,982.58
2017-12-28T02:24:30.551Z,982.57
2017-12-28T02:25:11.140Z,982.53
2017-12-28T02:25:51.702Z,982.54
2017-12-28T02:26:32.295Z,982.6
2017-12-28T02:27:12.854Z,982.58
2017-12-28T02:27:53.406Z,982.61
2017-12-28T02:28:33.987Z,982.58
2017-12-28T02:29:14.539Z,982.55
2017-12-28T02:29:55.096Z,982.53
2017-12-28T02:30:35.660Z,982.6
2017-12-28T02:31:16.218Z,982.58
2017-12-28T02:31:56.818Z,982.56
2017-12-28T02:32:37.377Z,982.58
2017-12-28T02:33:17.932Z,982.6
2017-12-28T02:33:58.559Z,982.56
2017-12-28T02:34:39.127Z,982.6
2017-12-28T02:35:19.699Z,982.59
2017-12-28T02:36:00.208Z,982.58
2017-12-28T02:36:40.816Z,982.59
2017-12-28T02:37:21.380Z,982.57
2017-12-28T02:38:01.975Z,982.58
2017-12-28T02:38:42.540Z,982.57
2017-12-28T02:39:23.129Z,982.59
2017-12-28T02:40:03.690Z,982.59
2017-12-28T02:40:44.248Z,982.59
2017-12-28T02:41:24.803Z,982.64
2017-12-28T02:42:05.349Z,982.6
2017-12-28T02:42:45.913Z,982.59
2017-12-28T02:43:26.482Z,982.57
2017-12-28T02:44:07.038Z,982.55
2017-12-28T02:44:47.601Z,982.59
2017-12-28T02:45:28.157Z,982.54
2017-12-28T02:46:08.731Z,982.54
2017-12-28T02:46:49.283Z,982.55
2017-12-28T02:47:29.841Z,982.58
2017-12-28T02:48:10.393Z,982.54
2017-12-28T02:48:50.975Z,982.53
2017-12-28T02:49:31.530Z,982.51
2017-12-28T02:50:12.096Z,982.53
2017-12-28T02:50:52.648Z,982.51
2017-12-28T02:51:33.236Z,982.51
2017-12-28T02:52:13.791Z,982.5
2017-12-28T02:52:54.353Z,982.56
2017-12-28T02:53:34.932Z,982.53
2017-12-28T02:54:15.483Z,982.59
2017-12-28T02:54:56.039Z,982.52
2017-12-28T02:55:36.603Z,982.48
2017-12-28T02:56:17.165Z,982.52
2017-12-28T02:56:57.740Z,982.53
2017-12-28T02:57:38.334Z,982.52
2017-12-28T02:58:18.903Z,982.5
2017-12-28T02:58:59.461Z,982.53
2017-12-28T02:59:40.010Z,982.52
2017-12-28T03:00:20.587Z,982.51
2017-12-28T03:01:01.203Z,982.58
2017-12-28T03:01:41.783Z,982.59
2017-12-28T03:02:22.341Z,982.63
2017-12-28T03:03:02.916Z,982.62
2017-12-28T03:03:43.507Z,982.6
2017-12-28T03:04:24.076Z,982.62
2017-12-28T03:05:04.652Z,982.61
2017-12-28T03:05:45.216Z,982.65
2017-12-28T03:06:25.776Z,982.63
2017-12-28T03:07:06.360Z,982.62
2017-12-28T03:07:46.937Z,982.7
2017-12-28T03:08:27.519Z,982.71
2017-12-28T03:09:08.092Z,982.7
2017-12-28T03:09:48.665Z,982.72
2017-12-28T03:10:29.217Z,982.75
2017-12-28T03:11:09.777Z,982.73
2017-12-28T03:11:50.340Z,982.74
2017-12-28T03:12:30.911Z,982.71
2017-12-28T03:13:11.482Z,982.72
2017-12-28T03:13:52.041Z,982.71
2017-12-28T03:14:32.613Z,982.7
2017-12-28T03:15:13.178Z,982.7
2017-12-28T03:15:53.738Z,982.72
2017-12-28T03:16:34.303Z,982.71
2017-12-28T03:17:14.884Z,982.7
2017-12-28T03:17:55.451Z,982.7
2017-12-28T03:18:36.042Z,982.69
2017-12-28T03:19:16.601Z,982.65
2017-12-28T03:19:57.173Z,982.62
2017-12-28T03:20:37.736Z,982.63
2017-12-28T03:21:18.317Z,982.63
2017-12-28T03:21:58.875Z,982.65
2017-12-28T03:22:39.448Z,982.66
2017-12-28T03:23:20.022Z,982.63
2017-12-28T03:24:00.594Z,982.64
2017-12-28T03:24:41.165Z,982.64
2017-12-28T03:25:21.747Z,982.65
2017-12-28T03:26:02.309Z,982.62
2017-12-28T03:26:42.870Z,982.61
2017-12-28T03:27:23.432Z,982.63
2017-12-28T03:28:03.995Z,982.6
2017-12-28T03:28:44.551Z,982.6
2017-12-28T03:29:25.133Z,982.62
2017-12-28T03:30:05.679Z,982.62
2017-12-28T03:30:46.247Z,982.63
2017-12-28T03:31:26.802Z,982.66
2017-12-28T03:32:07.369Z,982.66
2017-12-28T03:32:47.964Z,982.68
2017-12-28T03:33:28.547Z,982.66
2017-12-28T03:34:09.103Z,982.68
2017-12-28T03:34:49.674Z,982.7
2017-12-28T03:35:30.267Z,982.71
2017-12-28T03:36:10.825Z,982.7
2017-12-28T03:36:51.408Z,982.67
2017-12-28T03:37:31.957Z,982.67
2017-12-28T03:38:12.520Z,982.68
2017-12-28T03:38:53.072Z,982.67
2017-12-28T03:39:33.657Z,982.72
2017-12-28T03:40:14.242Z,982.68
2017-12-28T03:40:54.882Z,982.71
2017-12-28T03:41:35.436Z,982.73
2017-12-28T03:42:16.011Z,982.7
2017-12-28T03:42:56.595Z,982.68
2017-12-28T03:43:37.163Z,982.68
2017-12-28T03:44:17.764Z,982.69
2017-12-28T03:44:58.326Z,982.65
2017-12-28T03:45:38.894Z,982.65
2017-12-28T03:46:19.460Z,982.73
2017-12-28T03:47:00.028Z,982.65
2017-12-28T03:47:40.603Z,982.67
2017-12-28T03:48:21.157Z,982.61
2017-12-28T03:49:01.721Z,982.59
2017-12-28T03:49:42.306Z,982.6
2017-12-28T03:50:22.865Z,982.63
2017-12-28T03:51:03.434Z,982.62
2017-12-28T03:51:44.012Z,982.64
2017-12-28T03:52:24.598Z,982.69
2017-12-28T03:53:05.173Z,982.7
2017-12-28T03:53:45.739Z,982.71
2017-12-28T03:54:26.305Z,982.7
2017-12-28T03:55:06.856Z,982.71
2017-12-28T03:55:47.429Z,982.71
2017-12-28T03:56:28.001Z,982.76
2017-12-28T03:57:08.559Z,982.77
2017-12-28T03:57:49.123Z,982.75
2017-12-28T03:58:29.687Z,982.77
2017-12-28T03:59:10.242Z,982.78
2017-12-28T03:59:50.801Z,982.81
2017-12-28T04:00:31.358Z,982.74
2017-12-28T04:01:11.924Z,982.79
2017-12-28T04:01:52.524Z,982.73
2017-12-28T04:02:33.090Z,982.78
2017-12-28T04:03:13.672Z,982.79
2017-12-28T04:03:54.239Z,982.77
2017-12-28T04:04:34.807Z,982.79
2017-12-28T04:05:15.370Z,982.79
2017-12-28T04:05:55.936Z,982.76
2017-12-28T04:06:36.491Z,982.79
2017-12-28T04:07:17.063Z,982.8
2017-12-28T04:07:57.617Z,982.8
2017-12-28T04:08:38.175Z,982.8
2017-12-28T04:09:18.727Z,982.8
2017-12-28T04:09:59.300Z,982.79
2017-12-28T04:10:39.863Z,982.85
2017-12-28T04:11:20.433Z,982.77
2017-12-28T04:12:01.018Z,982.83
2017-12-28T04:12:41.578Z,982.83
2017-12-28T04:13:22.138Z,982.83
2017-12-28T04:14:02.699Z,982.87
2017-12-28T04:14:43.260Z,982.82
2017-12-28T04:15:23.851Z,982.88
2017-12-28T04:16:05.327Z,982.87
2017-12-28T04:16:45.917Z,982.83
2017-12-28T04:17:26.476Z,982.86
2017-12-28T04:18:07.030Z,982.9
2017-12-28T04:18:47.598Z,982.87
2017-12-28T04:19:28.176Z,982.9
2017-12-28T04:20:08.742Z,982.89
2017-12-28T04:20:49.299Z,982.86
2017-12-28T04:21:29.865Z,982.88
2017-12-28T04:22:10.425Z,982.87
2017-12-28T04:22:50.996Z,982.88
2017-12-28T04:23:31.580Z,982.91
2017-12-28T04:24:12.137Z,982.88
2017-12-28T04:24:52.711Z,982.9
2017-12-28T04:25:33.276Z,982.89
2017-12-28T04:26:13.851Z,982.91
2017-12-28T04:26:54.411Z,982.89
2017-12-28T04:27:34.984Z,982.95
2017-12-28T04:28:15.550Z,982.91
2017-12-28T04:28:56.114Z,982.95
2017-12-28T04:29:36.678Z,982.91
2017-12-28T04:30:17.254Z,982.92
2017-12-28T04:30:57.822Z,982.93
2017-12-28T04:31:38.393Z,982.94
2017-12-28T04:32:18.978Z,982.92
2017-12-28T04:32:59.546Z,982.93
2017-12-28T04:33:40.104Z,982.93
2017-12-28T04:34:20.659Z,982.94
2017-12-28T04:35:01.227Z,982.94
2017-12-28T04:35:41.792Z,982.94
2017-12-28T04:36:22.369Z,982.91
2017-12-28T04:37:02.937Z,982.94
2017-12-28T04:37:43.500Z,982.92
2017-12-28T04:38:24.055Z,982.93
2017-12-28T04:39:04.618Z,982.93
2017-12-28T04:39:45.168Z,982.94
2017-12-28T04:40:25.734Z,982.94
2017-12-28T04:41:06.290Z,982.93
2017-12-28T04:41:46.849Z,982.96
2017-12-28T04:42:27.405Z,982.96
2017-12-28T04:43:07.963Z,983
2017-12-28T04:43:48.534Z,982.98
2017-12-28T04:44:29.101Z,982.98
2017-12-28T04:45:09.659Z,983.01
2017-12-28T04:45:50.223Z,983.03
2017-12-28T04:46:30.789Z,983.03
2017-12-28T04:47:11.356Z,983.04
2017-12-28T04:47:51.913Z,983.06
2017-12-28T04:48:32.484Z,982.96
2017-12-28T04:49:13.054Z,983
2017-12-28T04:49:53.617Z,982.98
2017-12-28T04:50:34.181Z,983
2017-12-28T04:51:14.746Z,982.97
2017-12-28T04:51:55.308Z,982.98
2017-12-28T04:52:35.870Z,983.02
2017-12-28T04:53:16.470Z,983.01
2017-12-28T04:53:57.031Z,983.05
2017-12-28T04:54:37.618Z,983.04
2017-12-28T04:55:18.183Z,983.04
2017-12-28T04:55:58.761Z,983.04
2017-12-28T05:00:09.807Z,983.1
2017-12-28T05:00:50.372Z,983.11
2017-12-28T05:01:30.996Z,983.11
2017-12-28T05:02:11.568Z,983.09
2017-12-28T05:02:52.122Z,983.12
2017-12-28T05:03:32.676Z,983.11
2017-12-28T05:04:13.246Z,983.1
2017-12-28T05:04:53.812Z,983.05
2017-12-28T05:05:34.364Z,983.12
2017-12-28T05:06:14.923Z,983.1
2017-12-28T05:06:55.478Z,983.09
2017-12-28T05:07:36.087Z,983.13
2017-12-28T05:08:16.635Z,983.12
2017-12-28T05:08:57.228Z,983.15
2017-12-28T05:09:37.800Z,983.19
2017-12-28T05:10:18.397Z,983.2
2017-12-28T05:10:58.963Z,983.18
2017-12-28T05:11:39.528Z,983.19
2017-12-28T05:12:20.113Z,983.14
2017-12-28T05:13:00.668Z,983.15
2017-12-28T05:13:41.256Z,983.12
2017-12-28T05:14:21.819Z,983.1
2017-12-28T05:15:02.392Z,983.13
2017-12-28T05:15:42.939Z,983.12
2017-12-28T05:16:23.501Z,983.11
2017-12-28T05:17:04.073Z,983.17
2017-12-28T05:17:44.640Z,983.18
2017-12-28T05:18:25.222Z,983.19
2017-12-28T05:19:05.778Z,983.2
2017-12-28T05:19:46.344Z,983.21
2017-12-28T05:20:26.931Z,983.2
2017-12-28T05:21:07.506Z,983.21
2017-12-28T05:21:48.080Z,983.18
2017-12-28T05:22:28.653Z,983.19
2017-12-28T05:23:09.236Z,983.17
2017-12-28T05:23:49.791Z,983.19
2017-12-28T05:24:30.354Z,983.18
2017-12-28T05:25:10.916Z,983.23
2017-12-28T05:25:51.480Z,983.28
2017-12-28T05:26:32.044Z,983.24
2017-12-28T05:27:12.634Z,983.26
2017-12-28T05:27:53.191Z,983.26
2017-12-28T05:28:33.746Z,983.25
2017-12-28T05:29:14.347Z,983.22
2017-12-28T05:29:54.914Z,983.27
2017-12-28T05:30:35.476Z,983.27
2017-12-28T05:31:16.029Z,983.31
2017-12-28T05:31:56.595Z,983.27
2017-12-28T05:32:37.149Z,983.31
2017-12-28T05:33:17.711Z,983.32
2017-12-28T05:33:58.280Z,983.3
2017-12-28T05:34:38.852Z,983.31
2017-12-28T05:35:19.420Z,983.28
2017-12-28T05:35:59.980Z,983.31
2017-12-28T05:36:40.561Z,983.32
2017-12-28T05:37:21.133Z,983.29
2017-12-28T05:38:01.709Z,983.31
2017-12-28T05:38:42.300Z,983.35
2017-12-28T05:39:22.857Z,983.31
2017-12-28T05:40:03.419Z,983.31
2017-12-28T05:40:48.772Z,983.41
2017-12-28T05:41:29.347Z,983.39
2017-12-28T05:42:09.912Z,983.36
2017-12-28T05:42:50.482Z,983.35
2017-12-28T05:43:31.043Z,983.38
2017-12-28T05:44:11.624Z,983.41
2017-12-28T05:44:52.180Z,983.38
2017-12-28T05:45:32.788Z,983.39
2017-12-28T05:46:13.378Z,983.43
2017-12-28T05:46:53.958Z,983.46
2017-12-28T05:47:34.556Z,983.47
2017-12-28T05:48:15.142Z,983.46
2017-12-28T05:48:55.711Z,983.45
2017-12-28T05:49:36.277Z,983.48
2017-12-28T05:50:16.842Z,983.52
2017-12-28T05:50:57.416Z,983.47
2017-12-28T05:51:37.984Z,983.5
2017-12-28T05:52:18.551Z,983.47
2017-12-28T05:52:59.130Z,983.5
2017-12-28T05:53:39.704Z,983.53
2017-12-28T05:54:20.252Z,983.49
2017-12-28T05:55:00.813Z,983.56
2017-12-28T05:55:41.406Z,983.56
2017-12-28T05:56:21.971Z,983.56
2017-12-28T05:57:02.547Z,983.59
2017-12-28T05:57:43.115Z,983.59
2017-12-28T05:58:23.669Z,983.63
2017-12-28T05:59:04.240Z,983.61
2017-12-28T05:59:44.808Z,983.58
2017-12-28T06:00:26.007Z,983.62
2017-12-28T06:01:06.567Z,983.62
2017-12-28T06:01:47.132Z,983.57
2017-12-28T06:02:27.686Z,983.58
2017-12-28T06:03:08.244Z,983.55
2017-12-28T06:03:48.812Z,983.56
2017-12-28T06:04:29.366Z,983.56
2017-12-28T06:05:09.924Z,983.59
2017-12-28T06:05:50.502Z,983.57
2017-12-28T06:06:31.058Z,983.61
2017-12-28T06:07:11.624Z,983.63
2017-12-28T06:07:52.183Z,983.67
2017-12-28T06:08:32.736Z,983.68
2017-12-28T06:09:13.326Z,983.69
2017-12-28T06:09:53.887Z,983.69
2017-12-28T06:10:34.454Z,983.7
2017-12-28T06:11:15.020Z,983.71
2017-12-28T06:11:55.587Z,983.71
2017-12-28T06:12:36.166Z,983.74
2017-12-28T06:13:16.728Z,983.74
2017-12-28T06:13:57.295Z,983.73
2017-12-28T06:14:37.856Z,983.75
2017-12-28T06:15:18.419Z,983.78
2017-12-28T06:15:58.975Z,983.74
2017-12-28T06:16:39.537Z,983.72
2017-12-28T06:17:20.109Z,983.81
2017-12-28T06:18:00.679Z,983.79
2017-12-28T06:18:41.241Z,983.9
2017-12-28T06:19:21.800Z,983.79
2017-12-28T06:20:02.388Z,983.83
2017-12-28T06:20:42.955Z,983.81
2017-12-28T06:21:23.519Z,983.85
2017-12-28T06:22:04.068Z,983.86
2017-12-28T06:22:44.643Z,983.85
2017-12-28T06:23:25.208Z,983.87
2017-12-28T06:24:05.773Z,983.85
2017-12-28T06:24:46.333Z,983.89
2017-12-28T06:25:26.909Z,983.88
2017-12-28T06:26:07.475Z,983.92
2017-12-28T06:26:48.039Z,983.95
2017-12-28T06:27:28.633Z,983.94
2017-12-28T06:28:09.207Z,983.96
2017-12-28T06:28:49.766Z,983.93
2017-12-28T06:29:30.324Z,983.94
2017-12-28T06:30:10.868Z,983.92
2017-12-28T06:30:51.422Z,983.9
2017-12-28T06:31:31.985Z,983.94
2017-12-28T06:32:12.547Z,983.94
2017-12-28T06:32:53.102Z,983.95
2017-12-28T06:33:33.674Z,983.93
2017-12-28T06:34:14.238Z,983.96
2017-12-28T06:34:54.806Z,983.97
2017-12-28T06:35:35.383Z,984.01
2017-12-28T06:36:15.950Z,983.99
2017-12-28T06:36:56.511Z,983.97
2017-12-28T06:37:37.079Z,983.99
2017-12-28T06:38:17.664Z,984.03
2017-12-28T06:38:58.243Z,984.03
2017-12-28T06:39:38.805Z,984.06
2017-12-28T06:40:19.367Z,984.08
2017-12-28T06:40:59.929Z,984.04
2017-12-28T06:41:40.512Z,984.05
2017-12-28T06:42:21.084Z,984.05
2017-12-28T06:43:01.662Z,984.07
2017-12-28T06:43:42.218Z,984.08
2017-12-28T06:44:22.791Z,984.11
2017-12-28T06:45:03.381Z,984.14
2017-12-28T06:45:43.947Z,984.16
2017-12-28T06:46:24.520Z,984.14
2017-12-28T06:47:05.110Z,984.18
2017-12-28T06:47:45.678Z,984.17
2017-12-28T06:48:26.238Z,984.16
2017-12-28T06:49:06.817Z,984.18
2017-12-28T06:49:47.390Z,984.15
2017-12-28T06:50:27.981Z,984.16
2017-12-28T06:51:08.532Z,984.16
2017-12-28T06:51:49.095Z,984.16
2017-12-28T06:52:29.678Z,984.16
2017-12-28T06:53:10.242Z,984.15
2017-12-28T06:53:50.807Z,984.22
2017-12-28T06:54:31.381Z,984.15
2017-12-28T06:55:11.935Z,984.18
2017-12-28T06:55:52.488Z,984.21
2017-12-28T06:56:33.081Z,984.17
2017-12-28T06:57:13.641Z,984.19
2017-12-28T06:57:54.207Z,984.21
2017-12-28T06:58:34.787Z,984.22
2017-12-28T06:59:15.348Z,984.29
2017-12-28T06:59:55.950Z,984.25
2017-12-28T07:00:36.517Z,984.28
2017-12-28T07:01:17.090Z,984.25
2017-12-28T07:01:57.673Z,984.28
2017-12-28T07:02:38.241Z,984.28
2017-12-28T07:03:18.799Z,984.22
2017-12-28T07:03:59.373Z,984.27
2017-12-28T07:04:39.929Z,984.23
2017-12-28T07:05:20.505Z,984.25
2017-12-28T07:06:01.071Z,984.27
2017-12-28T07:06:41.643Z,984.3
2017-12-28T07:07:22.240Z,984.37
2017-12-28T07:08:02.855Z,984.37
2017-12-28T07:08:43.435Z,984.34
2017-12-28T07:09:24.042Z,984.36
2017-12-28T07:10:04.605Z,984.36
2017-12-28T07:10:45.161Z,984.38
2017-12-28T07:11:25.757Z,984.34
2017-12-28T07:12:06.316Z,984.37
2017-12-28T07:12:46.880Z,984.39
2017-12-28T07:13:27.438Z,984.43
2017-12-28T07:14:08.002Z,984.45
2017-12-28T07:14:48.557Z,984.55
2017-12-28T07:15:29.124Z,984.53
2017-12-28T07:16:09.692Z,984.56
2017-12-28T07:16:50.243Z,984.55
2017-12-28T07:17:30.823Z,984.57
2017-12-28T07:18:11.422Z,984.55
2017-12-28T07:18:51.984Z,984.5
2017-12-28T07:19:32.544Z,984.49
2017-12-28T07:20:13.107Z,984.42
2017-12-28T07:20:53.688Z,984.44
2017-12-28T07:21:34.262Z,984.45
2017-12-28T07:22:14.811Z,984.54
2017-12-28T07:22:55.404Z,984.46
2017-12-28T07:23:35.984Z,984.51
2017-12-28T07:24:16.592Z,984.56
2017-12-28T07:24:57.133Z,984.61
2017-12-28T07:25:37.705Z,984.64
2017-12-28T07:26:18.274Z,984.64
2017-12-28T07:26:58.862Z,984.65
2017-12-28T07:27:39.420Z,984.64
2017-12-28T07:28:20.007Z,984.63
2017-12-28T07:29:00.590Z,984.69
2017-12-28T07:29:41.148Z,984.63
2017-12-28T07:30:21.718Z,984.65
2017-12-28T07:31:02.293Z,984.68
2017-12-28T07:31:42.862Z,984.59
2017-12-28T07:32:23.423Z,984.66
2017-12-28T07:33:04.014Z,984.65
2017-12-28T07:33:44.601Z,984.68
2017-12-28T07:34:25.168Z,984.67
2017-12-28T07:35:05.755Z,984.68
2017-12-28T07:35:46.357Z,984.66
2017-12-28T07:36:26.921Z,984.71
2017-12-28T07:37:07.477Z,984.66
2017-12-28T07:37:48.033Z,984.65
2017-12-28T07:38:28.589Z,984.66
2017-12-28T07:39:09.153Z,984.64
2017-12-28T07:39:49.727Z,984.65
2017-12-28T07:40:30.291Z,984.61
2017-12-28T07:41:10.855Z,984.64
2017-12-28T07:41:51.423Z,984.65
2017-12-28T07:42:31.983Z,984.64
2017-12-28T07:43:12.558Z,984.66
2017-12-28T07:43:53.136Z,984.68
2017-12-28T07:44:33.700Z,984.63
2017-12-28T07:45:14.253Z,984.6
2017-12-28T07:45:54.830Z,984.64
2017-12-28T07:46:35.395Z,984.66
2017-12-28T07:47:15.981Z,984.63
2017-12-28T07:47:56.542Z,984.61
2017-12-28T07:48:37.141Z,984.65
2017-12-28T07:49:17.701Z,984.66
2017-12-28T07:49:58.265Z,984.64
2017-12-28T07:50:38.817Z,984.67
2017-12-28T07:51:19.374Z,984.65
2017-12-28T07:51:59.963Z,984.7
2017-12-28T07:52:40.563Z,984.69
2017-12-28T07:53:21.126Z,984.69
2017-12-28T07:54:01.726Z,984.69
2017-12-28T07:54:42.285Z,984.65
2017-12-28T07:55:22.879Z,984.68
2017-12-28T07:56:03.463Z,984.72
2017-12-28T07:56:44.029Z,984.72
2017-12-28T07:57:24.640Z,984.68
2017-12-28T07:58:05.221Z,984.71
2017-12-28T07:58:45.804Z,984.74
2017-12-28T07:59:26.367Z,984.73
2017-12-28T08:00:06.950Z,984.7
2017-12-28T08:00:47.520Z,984.73
2017-12-28T08:01:28.094Z,984.74
2017-12-28T08:02:08.656Z,984.77
2017-12-28T08:02:49.239Z,984.78
2017-12-28T08:03:29.825Z,984.77
2017-12-28T08:04:10.402Z,984.72
2017-12-28T08:04:50.964Z,984.73
2017-12-28T08:05:31.577Z,984.81
2017-12-28T08:06:12.164Z,984.78
2017-12-28T08:06:52.740Z,984.79
2017-12-28T08:07:33.310Z,984.86
2017-12-28T08:08:13.885Z,984.82
2017-12-28T08:08:54.445Z,984.82
2017-12-28T08:09:35.028Z,984.83
2017-12-28T08:10:15.592Z,984.83
2017-12-28T08:10:56.185Z,984.83
2017-12-28T08:11:36.750Z,984.84
2017-12-28T08:12:17.320Z,984.88
2017-12-28T08:12:57.917Z,984.87
2017-12-28T08:13:38.476Z,984.88
2017-12-28T08:14:19.061Z,984.84
2017-12-28T08:14:59.622Z,984.82
2017-12-28T08:15:40.197Z,984.81
2017-12-28T08:16:20.765Z,984.82
2017-12-28T08:17:01.340Z,984.85
2017-12-28T08:17:41.981Z,984.84
2017-12-28T08:18:22.549Z,984.86
2017-12-28T08:19:03.127Z,984.83
2017-12-28T08:19:43.719Z,984.85
2017-12-28T08:20:24.321Z,984.88
2017-12-28T08:21:04.981Z,984.85
2017-12-28T08:21:45.693Z,984.91
2017-12-28T08:22:26.254Z,984.88
2017-12-28T08:23:06.831Z,984.89
2017-12-28T08:23:47.397Z,984.89
2017-12-28T08:24:28.024Z,984.93
2017-12-28T08:25:08.589Z,984.92
2017-12-28T08:25:49.174Z,984.94
2017-12-28T08:26:29.760Z,984.95
2017-12-28T08:27:10.335Z,984.97
2017-12-28T08:27:50.921Z,985.02
2017-12-28T08:28:31.485Z,985.03
2017-12-28T08:29:12.045Z,985.01
2017-12-28T08:29:52.615Z,985.02
2017-12-28T08:30:33.215Z,985.07
2017-12-28T08:31:13.829Z,985.07